createdAt,value
2018-11-11T00:00:57.780Z,5.50
2018-11-11T00:01:57.785Z,6.10
2018-11-11T00:02:57.797Z,6.10
2018-11-11T00:03:57.779Z,6.30
2018-11-11T00:04:57.790Z,6.40
2018-11-11T00:05:57.790Z,6.30
2018-11-11T00:06:57.827Z,5.80
2018-11-11T00:07:57.796Z,5.90
2018-11-11T00:08:57.791Z,6.10
2018-11-11T00:09:57.787Z,5.80
2018-11-11T00:10:57.818Z,6.20
2018-11-11T00:11:57.831Z,6.40
2018-11-11T00:12:57.798Z,5.80
2018-11-11T00:13:57.809Z,5.70
2018-11-11T00:14:57.806Z,6.00
2018-11-11T00:15:57.805Z,5.90
2018-11-11T00:16:57.804Z,6.30
2018-11-11T00:17:57.797Z,5.60
2018-11-11T00:18:57.813Z,6.00
2018-11-11T00:19:57.793Z,6.30
2018-11-11T00:20:57.799Z,6.20
2018-11-11T00:21:57.800Z,6.10
2018-11-11T00:22:57.801Z,5.80
2018-11-11T00:23:57.816Z,5.90
2018-11-11T00:24:57.804Z,5.70
2018-11-11T00:25:57.815Z,5.80
2018-11-11T00:26:57.801Z,6.00
2018-11-11T00:27:57.809Z,6.00
2018-11-11T00:28:57.814Z,5.40
2018-11-11T00:29:57.802Z,5.60
2018-11-11T00:30:57.806Z,6.00
2018-11-11T00:31:57.817Z,6.00
2018-11-11T00:32:57.807Z,6.00
2018-11-11T00:33:57.821Z,5.80
2018-11-11T00:34:57.807Z,5.90
2018-11-11T00:35:57.808Z,5.60
2018-11-11T00:36:57.855Z,5.90
2018-11-11T00:37:57.846Z,6.50
2018-11-11T00:38:57.820Z,6.10
2018-11-11T00:39:57.825Z,5.90
2018-11-11T00:40:57.813Z,5.60
2018-11-11T00:41:57.815Z,5.60
2018-11-11T00:42:57.819Z,5.30
2018-11-11T00:43:57.832Z,6.10
2018-11-11T00:44:57.832Z,5.50
2018-11-11T00:45:57.844Z,5.90
2018-11-11T00:46:57.820Z,5.20
2018-11-11T00:47:57.822Z,5.60
2018-11-11T00:48:57.821Z,5.20
2018-11-11T00:49:57.832Z,5.60
2018-11-11T00:50:57.851Z,5.40
2018-11-11T00:51:57.848Z,5.10
2018-11-11T00:52:57.837Z,5.40
2018-11-11T00:53:57.823Z,5.10
2018-11-11T00:54:57.828Z,4.80
2018-11-11T00:55:57.853Z,5.00
2018-11-11T00:56:57.848Z,4.70
2018-11-11T00:57:57.833Z,4.70
2018-11-11T00:58:57.837Z,5.20
2018-11-11T00:59:57.834Z,4.70
2018-11-11T01:00:57.836Z,5.00
2018-11-11T01:01:57.836Z,4.70
2018-11-11T01:02:57.833Z,4.70
2018-11-11T01:03:57.830Z,4.50
2018-11-11T01:04:57.829Z,4.90
2018-11-11T01:05:57.856Z,4.60
2018-11-11T01:06:57.839Z,4.30
2018-11-11T01:07:57.848Z,4.20
2018-11-11T01:08:57.893Z,4.20
2018-11-11T01:09:57.862Z,4.30
2018-11-11T01:10:57.868Z,4.50
2018-11-11T01:11:57.841Z,4.30
2018-11-11T01:12:57.864Z,4.40
2018-11-11T01:13:57.841Z,3.70
2018-11-11T01:14:57.855Z,4.20
2018-11-11T01:15:57.863Z,3.70
2018-11-11T01:16:57.859Z,3.60
2018-11-11T01:17:57.846Z,4.00
2018-11-11T01:18:57.849Z,3.70
2018-11-11T01:19:57.840Z,3.80
2018-11-11T01:20:57.845Z,3.50
2018-11-11T01:21:57.861Z,3.70
2018-11-11T01:22:57.844Z,3.60
2018-11-11T01:23:57.863Z,3.80
2018-11-11T01:24:57.851Z,3.50
2018-11-11T01:25:57.854Z,3.10
2018-11-11T01:26:57.861Z,3.50
2018-11-11T01:27:57.858Z,3.30
2018-11-11T01:28:57.853Z,3.20
2018-11-11T01:29:57.870Z,3.60
2018-11-11T01:30:57.849Z,3.60
2018-11-11T01:31:57.861Z,3.20
2018-11-11T01:32:57.861Z,2.80
2018-11-11T01:33:57.861Z,3.40
2018-11-11T01:34:57.862Z,3.20
2018-11-11T01:35:57.861Z,3.00
2018-11-11T01:36:57.850Z,3.10
2018-11-11T01:37:57.862Z,3.40
2018-11-11T01:38:57.868Z,3.20
2018-11-11T01:39:57.858Z,3.00
2018-11-11T01:40:57.867Z,3.20
2018-11-11T01:41:57.871Z,3.00
2018-11-11T01:42:57.856Z,3.10
2018-11-11T01:43:57.867Z,3.40
2018-11-11T01:44:57.889Z,3.10
2018-11-11T01:45:57.887Z,3.00
2018-11-11T01:46:57.868Z,2.90
2018-11-11T01:47:57.855Z,2.90
2018-11-11T01:48:57.863Z,2.90
2018-11-11T01:49:57.915Z,2.80
2018-11-11T01:50:57.864Z,2.80
2018-11-11T01:51:57.875Z,2.70
2018-11-11T01:52:57.861Z,3.00
2018-11-11T01:53:57.867Z,2.60
2018-11-11T01:54:57.870Z,2.80
2018-11-11T01:55:57.864Z,2.80
2018-11-11T01:56:57.868Z,2.80
2018-11-11T01:57:57.881Z,2.80
2018-11-11T01:58:57.884Z,2.70
2018-11-11T01:59:57.882Z,2.80
2018-11-11T02:00:57.894Z,2.50
2018-11-11T02:01:57.892Z,2.70
2018-11-11T02:02:57.900Z,2.80
2018-11-11T02:03:57.878Z,2.50
2018-11-11T02:04:57.898Z,2.50
2018-11-11T02:05:57.869Z,2.60
2018-11-11T02:06:57.865Z,2.90
2018-11-11T02:07:57.884Z,2.80
2018-11-11T02:08:57.878Z,2.30
2018-11-11T02:09:57.964Z,2.60
2018-11-11T02:10:57.897Z,2.60
2018-11-11T02:11:57.883Z,2.50
2018-11-11T02:12:57.877Z,2.30
2018-11-11T02:13:57.880Z,2.70
2018-11-11T02:14:57.913Z,2.70
2018-11-11T02:15:57.906Z,2.80
2018-11-11T02:16:57.880Z,2.60
2018-11-11T02:17:57.950Z,2.70
2018-11-11T02:18:57.914Z,2.80
2018-11-11T02:19:57.898Z,2.60
2018-11-11T02:20:57.912Z,2.70
2018-11-11T02:21:57.890Z,2.70
2018-11-11T02:22:57.885Z,2.70
2018-11-11T02:23:57.914Z,2.50
2018-11-11T02:24:57.878Z,2.40
2018-11-11T02:25:57.880Z,2.60
2018-11-11T02:26:57.881Z,2.40
2018-11-11T02:27:57.882Z,2.20
2018-11-11T02:28:57.887Z,2.90
2018-11-11T02:29:57.889Z,2.40
2018-11-11T02:30:57.888Z,2.40
2018-11-11T02:31:57.892Z,2.70
2018-11-11T02:32:57.915Z,2.60
2018-11-11T02:33:57.895Z,2.50
2018-11-11T02:34:57.908Z,2.50
2018-11-11T02:35:57.907Z,2.60
2018-11-11T02:36:57.883Z,2.40
2018-11-11T02:37:57.889Z,2.30
2018-11-11T02:38:57.882Z,2.80
2018-11-11T02:39:57.899Z,2.60
2018-11-11T02:40:57.903Z,2.40
2018-11-11T02:41:57.893Z,2.50
2018-11-11T02:42:57.907Z,2.90
2018-11-11T02:43:57.890Z,2.30
2018-11-11T02:44:57.903Z,2.50
2018-11-11T02:45:57.899Z,2.60
2018-11-11T02:46:57.892Z,2.50
2018-11-11T02:47:57.893Z,2.70
2018-11-11T02:48:57.896Z,2.60
2018-11-11T02:49:57.912Z,2.50
2018-11-11T02:50:57.909Z,2.50
2018-11-11T02:51:57.904Z,2.40
2018-11-11T02:52:57.918Z,2.80
2018-11-11T02:53:57.896Z,2.50
2018-11-11T02:54:57.912Z,2.40
2018-11-11T02:55:57.900Z,2.70
2018-11-11T02:56:57.896Z,2.70
2018-11-11T02:57:57.904Z,2.60
2018-11-11T02:58:57.901Z,2.30
2018-11-11T02:59:57.903Z,2.40
2018-11-11T03:00:57.904Z,2.60
2018-11-11T03:01:57.900Z,2.70
2018-11-11T03:02:57.942Z,2.70
2018-11-11T03:03:57.909Z,2.90
2018-11-11T03:04:57.916Z,2.60
2018-11-11T03:05:57.916Z,2.50
2018-11-11T03:06:57.925Z,2.40
2018-11-11T03:07:57.907Z,2.40
2018-11-11T03:08:57.906Z,2.50
2018-11-11T03:09:57.918Z,2.50
2018-11-11T03:10:57.902Z,2.70
2018-11-11T03:11:57.902Z,2.30
2018-11-11T03:12:57.899Z,2.50
2018-11-11T03:13:57.907Z,2.60
2018-11-11T03:14:57.936Z,2.50
2018-11-11T03:15:57.922Z,2.30
2018-11-11T03:16:57.916Z,2.20
2018-11-11T03:17:57.917Z,2.40
2018-11-11T03:18:57.924Z,2.40
2018-11-11T03:19:57.908Z,2.20
2018-11-11T03:20:57.914Z,2.40
2018-11-11T03:21:57.914Z,2.30
2018-11-11T03:22:57.910Z,2.20
2018-11-11T03:23:57.925Z,2.20
2018-11-11T03:24:57.939Z,2.20
2018-11-11T03:25:57.928Z,2.40
2018-11-11T03:26:57.940Z,2.60
2018-11-11T03:27:57.906Z,2.20
2018-11-11T03:28:57.910Z,2.20
2018-11-11T03:29:57.907Z,2.10
2018-11-11T03:30:57.908Z,2.50
2018-11-11T03:31:57.915Z,2.10
2018-11-11T03:32:57.912Z,2.30
2018-11-11T03:33:57.911Z,2.30
2018-11-11T03:34:57.912Z,1.80
2018-11-11T03:35:57.924Z,1.90
2018-11-11T03:36:57.928Z,2.40
2018-11-11T03:37:57.911Z,2.00
2018-11-11T03:38:57.907Z,2.20
2018-11-11T03:39:57.919Z,2.20
2018-11-11T03:40:57.924Z,2.10
2018-11-11T03:41:57.923Z,2.00
2018-11-11T03:42:57.933Z,2.40
2018-11-11T03:43:57.915Z,2.10
2018-11-11T03:44:57.912Z,2.30
2018-11-11T03:45:57.913Z,2.40
2018-11-11T03:46:57.916Z,2.30
2018-11-11T03:47:57.933Z,2.30
2018-11-11T03:48:57.923Z,2.20
2018-11-11T03:49:57.942Z,2.40
2018-11-11T03:50:57.916Z,2.40
2018-11-11T03:51:57.922Z,2.00
2018-11-11T03:52:57.926Z,2.30
2018-11-11T03:53:57.933Z,2.10
2018-11-11T03:54:57.926Z,2.20
2018-11-11T03:55:57.941Z,2.00
2018-11-11T03:56:57.931Z,2.20
2018-11-11T03:57:57.954Z,2.50
2018-11-11T03:58:57.940Z,2.50
2018-11-11T03:59:57.944Z,2.60
2018-11-11T04:00:57.926Z,2.30
2018-11-11T04:01:57.934Z,1.90
2018-11-11T04:02:57.931Z,1.90
2018-11-11T04:03:57.935Z,2.20
2018-11-11T04:04:57.953Z,2.40
2018-11-11T04:05:57.926Z,2.40
2018-11-11T04:06:57.930Z,2.00
2018-11-11T04:07:57.926Z,2.20
2018-11-11T04:08:57.928Z,2.40
2018-11-11T04:09:57.926Z,2.20
2018-11-11T04:10:57.924Z,2.20
2018-11-11T04:11:57.932Z,2.30
2018-11-11T04:12:57.932Z,2.10
2018-11-11T04:13:57.931Z,2.00
2018-11-11T04:14:57.936Z,2.40
2018-11-11T04:15:57.951Z,2.20
2018-11-11T04:16:57.948Z,2.20
2018-11-11T04:17:57.950Z,2.20
2018-11-11T04:18:57.960Z,2.10
2018-11-11T04:19:57.928Z,2.40
2018-11-11T04:20:57.965Z,2.40
2018-11-11T04:21:57.930Z,2.40
2018-11-11T04:22:57.933Z,2.40
2018-11-11T04:23:57.948Z,2.50
2018-11-11T04:24:57.947Z,2.30
2018-11-11T04:25:57.931Z,2.40
2018-11-11T04:26:57.946Z,2.30
2018-11-11T04:27:57.961Z,2.20
2018-11-11T04:28:57.969Z,2.10
2018-11-11T04:29:57.942Z,2.50
2018-11-11T04:30:57.955Z,2.50
2018-11-11T04:31:57.950Z,2.20
2018-11-11T04:32:57.945Z,2.30
2018-11-11T04:33:57.959Z,2.20
2018-11-11T04:34:57.965Z,2.30
2018-11-11T04:35:57.967Z,2.00
2018-11-11T04:36:57.936Z,2.60
2018-11-11T04:37:57.973Z,2.20
2018-11-11T04:38:57.953Z,2.30
2018-11-11T04:39:57.937Z,2.30
2018-11-11T04:40:57.955Z,2.20
2018-11-11T04:41:57.948Z,2.30
2018-11-11T04:42:57.956Z,2.50
2018-11-11T04:43:57.952Z,2.10
2018-11-11T04:44:57.937Z,2.60
2018-11-11T04:45:57.952Z,2.30
2018-11-11T04:46:57.961Z,2.80
2018-11-11T04:47:57.952Z,2.30
2018-11-11T04:48:57.946Z,2.40
2018-11-11T04:49:57.969Z,2.10
2018-11-11T04:50:57.960Z,2.30
2018-11-11T04:51:57.960Z,2.50
2018-11-11T04:52:57.946Z,2.20
2018-11-11T04:53:57.962Z,2.20
2018-11-11T04:54:57.989Z,2.30
2018-11-11T04:55:57.946Z,2.30
2018-11-11T04:56:57.955Z,2.60
2018-11-11T04:57:57.949Z,2.20
2018-11-11T04:58:57.964Z,2.20
2018-11-11T04:59:57.950Z,2.50
2018-11-11T05:00:57.955Z,2.10
2018-11-11T05:01:57.956Z,2.60
2018-11-11T05:02:57.953Z,2.50
2018-11-11T05:03:57.966Z,2.20
2018-11-11T05:04:57.956Z,2.30
2018-11-11T05:05:57.969Z,2.20
2018-11-11T05:06:57.969Z,2.80
2018-11-11T05:07:57.975Z,2.10
2018-11-11T05:08:57.958Z,2.30
2018-11-11T05:09:57.960Z,2.60
2018-11-11T05:10:57.968Z,2.20
2018-11-11T05:11:59.891Z,2.50
2018-11-11T05:12:57.951Z,2.50
2018-11-11T05:13:57.953Z,2.60
2018-11-11T05:14:57.951Z,2.20
2018-11-11T05:15:57.970Z,2.80
2018-11-11T05:16:57.955Z,2.60
2018-11-11T05:17:57.981Z,2.50
2018-11-11T05:18:57.980Z,2.30
2018-11-11T05:19:57.956Z,2.60
2018-11-11T05:20:57.961Z,2.30
2018-11-11T05:21:58.045Z,2.70
2018-11-11T05:22:57.964Z,2.60
2018-11-11T05:23:57.957Z,2.40
2018-11-11T05:24:57.984Z,2.40
2018-11-11T05:25:57.960Z,2.80
2018-11-11T05:26:57.962Z,2.40
2018-11-11T05:27:57.961Z,2.80
2018-11-11T05:28:57.968Z,2.20
2018-11-11T05:29:57.972Z,2.40
2018-11-11T05:30:58.009Z,2.80
2018-11-11T05:31:57.964Z,2.40
2018-11-11T05:32:57.999Z,2.30
2018-11-11T05:33:57.978Z,2.20
2018-11-11T05:34:57.982Z,2.20
2018-11-11T05:35:57.969Z,2.50
2018-11-11T05:36:57.977Z,2.20
2018-11-11T05:37:57.975Z,2.50
2018-11-11T05:38:57.992Z,2.70
2018-11-11T05:39:57.993Z,2.70
2018-11-11T05:40:57.964Z,2.30
2018-11-11T05:41:57.983Z,2.30
2018-11-11T05:42:58.001Z,2.40
2018-11-11T05:43:57.974Z,2.50
2018-11-11T05:44:57.979Z,2.60
2018-11-11T05:45:57.971Z,2.30
2018-11-11T05:46:57.980Z,2.20
2018-11-11T05:47:57.973Z,2.20
2018-11-11T05:48:57.980Z,2.20
2018-11-11T05:49:57.980Z,2.50
2018-11-11T05:50:57.975Z,2.50
2018-11-11T05:51:57.984Z,2.30
2018-11-11T05:52:57.982Z,2.20
2018-11-11T05:53:58.018Z,2.40
2018-11-11T05:54:57.978Z,2.20
2018-11-11T05:55:57.986Z,2.20
2018-11-11T05:56:57.996Z,2.50
2018-11-11T05:57:57.996Z,2.40
2018-11-11T05:58:57.997Z,2.50
2018-11-11T05:59:57.979Z,2.20
2018-11-11T06:00:57.990Z,2.10
2018-11-11T06:01:57.981Z,2.20
2018-11-11T06:02:58.016Z,2.50
2018-11-11T06:03:57.999Z,2.30
2018-11-11T06:04:57.988Z,2.50
2018-11-11T06:05:58.002Z,2.30
2018-11-11T06:06:58.000Z,2.20
2018-11-11T06:07:57.986Z,2.30
2018-11-11T06:08:57.996Z,2.30
2018-11-11T06:09:58.007Z,2.40
2018-11-11T06:10:57.993Z,2.30
2018-11-11T06:11:57.989Z,2.60
2018-11-11T06:12:57.991Z,2.30
2018-11-11T06:13:57.998Z,2.50
2018-11-11T06:14:58.004Z,2.60
2018-11-11T06:15:58.027Z,2.20
2018-11-11T06:16:57.992Z,2.50
2018-11-11T06:17:58.020Z,2.30
2018-11-11T06:18:57.999Z,2.20
2018-11-11T06:19:58.012Z,2.50
2018-11-11T06:20:57.992Z,2.20
2018-11-11T06:21:57.996Z,2.30
2018-11-11T06:22:58.006Z,2.30
2018-11-11T06:23:58.096Z,2.40
2018-11-11T06:24:58.006Z,2.50
2018-11-11T06:25:58.005Z,2.20
2018-11-11T06:26:58.018Z,2.80
2018-11-11T06:27:57.997Z,2.20
2018-11-11T06:28:57.997Z,2.10
2018-11-11T06:29:58.001Z,2.70
2018-11-11T06:30:58.013Z,2.70
2018-11-11T06:31:58.017Z,2.20
2018-11-11T06:32:58.010Z,2.60
2018-11-11T06:33:58.041Z,2.60
2018-11-11T06:34:58.009Z,2.50
2018-11-11T06:35:58.004Z,2.30
2018-11-11T06:36:58.021Z,2.60
2018-11-11T06:37:58.000Z,2.30
2018-11-11T06:38:58.002Z,2.50
2018-11-11T06:39:58.016Z,2.60
2018-11-11T06:40:58.007Z,2.40
2018-11-11T06:41:58.004Z,2.50
2018-11-11T06:42:58.035Z,2.40
2018-11-11T06:43:58.017Z,2.30
2018-11-11T06:44:58.004Z,2.40
2018-11-11T06:45:58.029Z,2.10
2018-11-11T06:46:58.008Z,2.80
2018-11-11T06:47:58.082Z,2.40
2018-11-11T06:48:58.022Z,2.10
2018-11-11T06:49:58.005Z,2.00
2018-11-11T06:50:58.012Z,2.20
2018-11-11T06:51:58.022Z,2.30
2018-11-11T06:52:58.022Z,2.40
2018-11-11T06:53:58.022Z,2.20
2018-11-11T06:54:58.023Z,2.40
2018-11-11T06:55:58.018Z,2.50
2018-11-11T06:56:58.027Z,2.30
2018-11-11T06:57:58.035Z,2.10
2018-11-11T06:58:58.033Z,2.60
2018-11-11T06:59:58.024Z,2.00
2018-11-11T07:00:58.009Z,2.40
2018-11-11T07:01:58.020Z,2.30
2018-11-11T07:02:58.027Z,2.30
2018-11-11T07:03:58.036Z,2.20
2018-11-11T07:04:58.034Z,2.70
2018-11-11T07:05:58.025Z,2.30
2018-11-11T07:06:58.037Z,2.20
2018-11-11T07:07:58.045Z,2.30
2018-11-11T07:08:58.051Z,2.10
2018-11-11T07:09:58.048Z,2.20
2018-11-11T07:10:58.043Z,2.50
2018-11-11T07:11:58.023Z,2.20
2018-11-11T07:12:58.031Z,2.20
2018-11-11T07:13:58.078Z,2.50
2018-11-11T07:14:58.031Z,2.20
2018-11-11T07:15:58.021Z,2.20
2018-11-11T07:16:58.035Z,2.30
2018-11-11T07:17:58.031Z,2.40
2018-11-11T07:18:58.032Z,2.10
2018-11-11T07:19:58.035Z,2.10
2018-11-11T07:20:58.039Z,2.20
2018-11-11T07:21:58.039Z,2.30
2018-11-11T07:22:58.031Z,2.30
2018-11-11T07:23:58.048Z,2.50
2018-11-11T07:24:58.046Z,2.30
2018-11-11T07:25:58.034Z,2.10
2018-11-11T07:26:58.035Z,2.40
2018-11-11T07:27:58.048Z,2.20
2018-11-11T07:28:58.038Z,2.00
2018-11-11T07:29:58.083Z,2.10
2018-11-11T07:30:58.047Z,2.60
2018-11-11T07:31:58.031Z,2.50
2018-11-11T07:32:58.050Z,2.20
2018-11-11T07:33:58.031Z,2.30
2018-11-11T07:34:58.044Z,2.50
2018-11-11T07:35:58.092Z,2.20
2018-11-11T07:36:58.048Z,2.30
2018-11-11T07:37:58.043Z,2.30
2018-11-11T07:38:58.035Z,2.80
2018-11-11T07:39:58.058Z,2.40
2018-11-11T07:40:58.064Z,2.40
2018-11-11T07:41:58.039Z,2.00
2018-11-11T07:42:58.038Z,2.20
2018-11-11T07:43:58.046Z,2.80
2018-11-11T07:44:58.052Z,2.20
2018-11-11T07:45:58.061Z,2.30
2018-11-11T07:46:58.037Z,2.40
2018-11-11T07:47:58.167Z,2.50
2018-11-11T07:48:58.040Z,2.60
2018-11-11T07:49:58.045Z,2.40
2018-11-11T07:50:58.048Z,2.60
2018-11-11T07:51:58.118Z,2.30
2018-11-11T07:52:58.053Z,2.20
2018-11-11T07:53:58.055Z,2.80
2018-11-11T07:54:58.109Z,2.70
2018-11-11T07:55:58.055Z,2.50
2018-11-11T07:56:58.082Z,2.40
2018-11-11T07:57:58.054Z,2.50
2018-11-11T07:58:58.045Z,2.40
2018-11-11T07:59:58.076Z,2.60
2018-11-11T08:00:58.072Z,2.50
2018-11-11T08:01:58.076Z,2.40
2018-11-11T08:02:58.057Z,2.20
2018-11-11T08:03:58.061Z,2.30
2018-11-11T08:04:58.062Z,2.30
2018-11-11T08:05:58.051Z,2.10
2018-11-11T08:06:58.056Z,2.40
2018-11-11T08:07:58.060Z,2.20
2018-11-11T08:08:58.057Z,2.20
2018-11-11T08:09:58.055Z,2.60
2018-11-11T08:10:58.097Z,2.50
2018-11-11T08:11:58.068Z,2.10
2018-11-11T08:12:58.080Z,2.00
2018-11-11T08:13:58.067Z,2.30
2018-11-11T08:14:58.092Z,2.60
2018-11-11T08:15:58.086Z,2.10
2018-11-11T08:16:58.060Z,2.00
2018-11-11T08:17:58.063Z,2.40
2018-11-11T08:18:58.069Z,2.40
2018-11-11T08:19:58.068Z,1.90
2018-11-11T08:20:58.065Z,2.50
2018-11-11T08:21:58.076Z,2.30
2018-11-11T08:22:58.080Z,2.30
2018-11-11T08:23:58.069Z,2.10
2018-11-11T08:24:58.088Z,2.30
2018-11-11T08:25:58.067Z,2.40
2018-11-11T08:26:58.065Z,2.10
2018-11-11T08:27:58.081Z,2.00
2018-11-11T08:28:58.072Z,2.20
2018-11-11T08:29:58.084Z,1.90
2018-11-11T08:30:58.078Z,2.10
2018-11-11T08:31:58.081Z,2.10
2018-11-11T08:32:58.083Z,2.40
2018-11-11T08:33:58.087Z,2.10
2018-11-11T08:34:58.078Z,2.50
2018-11-11T08:35:58.079Z,2.10
2018-11-11T08:36:58.083Z,2.00
2018-11-11T08:37:58.089Z,2.20
2018-11-11T08:38:58.123Z,2.10
2018-11-11T08:39:58.101Z,2.70
2018-11-11T08:40:58.095Z,1.90
2018-11-11T08:41:58.121Z,2.20
2018-11-11T08:42:58.098Z,2.30
2018-11-11T08:43:58.079Z,2.00
2018-11-11T08:44:58.090Z,2.10
2018-11-11T08:45:58.081Z,2.10
2018-11-11T08:46:58.099Z,2.10
2018-11-11T08:47:58.143Z,2.10
2018-11-11T08:48:58.085Z,1.80
2018-11-11T08:49:58.095Z,1.90
2018-11-11T08:50:58.101Z,2.30
2018-11-11T08:51:58.098Z,2.10
2018-11-11T08:52:58.105Z,2.10
2018-11-11T08:53:58.096Z,2.10
2018-11-11T08:54:58.100Z,2.50
2018-11-11T08:55:58.102Z,2.00
2018-11-11T08:56:58.099Z,1.90
2018-11-11T08:57:58.120Z,2.20
2018-11-11T08:58:58.122Z,2.30
2018-11-11T08:59:58.109Z,2.40
2018-11-11T09:00:58.110Z,1.90
2018-11-11T09:01:58.219Z,2.40
2018-11-11T09:02:58.106Z,1.90
2018-11-11T09:03:58.105Z,2.10
2018-11-11T09:04:58.142Z,2.00
2018-11-11T09:05:58.113Z,2.10
2018-11-11T09:06:58.111Z,2.00
2018-11-11T09:07:58.131Z,1.70
2018-11-11T09:08:58.127Z,1.90
2018-11-11T09:09:58.127Z,2.30
2018-11-11T09:10:58.169Z,1.90
2018-11-11T09:11:58.138Z,2.20
2018-11-11T09:12:58.118Z,1.80
2018-11-11T09:13:58.122Z,2.20
2018-11-11T09:14:58.114Z,2.40
2018-11-11T09:15:58.115Z,1.90
2018-11-11T09:16:58.122Z,1.90
2018-11-11T09:17:58.141Z,1.90
2018-11-11T09:18:58.137Z,1.90
2018-11-11T09:19:58.137Z,2.00
2018-11-11T09:20:58.150Z,2.90
2018-11-11T09:21:58.128Z,1.90
2018-11-11T09:22:58.146Z,1.70
2018-11-11T09:23:58.135Z,2.10
2018-11-11T09:24:58.135Z,1.70
2018-11-11T09:25:58.141Z,1.80
2018-11-11T09:26:58.146Z,2.00
2018-11-11T09:27:58.146Z,1.90
2018-11-11T09:28:58.181Z,1.80
2018-11-11T09:29:58.133Z,2.00
2018-11-11T09:30:58.138Z,2.20
2018-11-11T09:31:58.156Z,2.30
2018-11-11T09:32:58.138Z,2.30
2018-11-11T09:33:58.147Z,1.90
2018-11-11T09:34:58.193Z,2.10
2018-11-11T09:35:58.148Z,1.80
2018-11-11T09:36:58.162Z,2.40
2018-11-11T09:37:58.184Z,2.20
2018-11-11T09:38:58.202Z,2.00
2018-11-11T09:39:58.146Z,2.00
2018-11-11T09:40:58.175Z,2.20
2018-11-11T09:41:58.146Z,1.70
2018-11-11T09:42:58.153Z,2.00
2018-11-11T09:43:58.155Z,2.10
2018-11-11T09:44:58.151Z,2.40
2018-11-11T09:45:58.158Z,2.20
2018-11-11T09:46:59.977Z,2.20
2018-11-11T09:47:58.240Z,1.90
2018-11-11T09:48:58.161Z,1.70
2018-11-11T09:49:58.153Z,2.00
2018-11-11T09:50:58.164Z,1.80
2018-11-11T09:51:58.169Z,1.60
2018-11-11T09:52:58.171Z,2.10
2018-11-11T09:53:58.196Z,2.40
2018-11-11T09:54:58.178Z,2.00
2018-11-11T09:55:58.180Z,2.20
2018-11-11T09:56:58.177Z,1.90
2018-11-11T09:57:58.166Z,2.10
2018-11-11T09:58:58.183Z,2.00
2018-11-11T09:59:58.249Z,2.10
2018-11-11T10:00:58.174Z,1.80
2018-11-11T10:01:58.167Z,1.90
2018-11-11T10:02:58.189Z,2.00
2018-11-11T10:03:58.180Z,2.00
2018-11-11T10:04:58.229Z,1.90
2018-11-11T10:05:58.189Z,1.80
2018-11-11T10:06:58.223Z,2.20
2018-11-11T10:07:58.201Z,1.70
2018-11-11T10:08:58.215Z,1.90
2018-11-11T10:09:58.211Z,1.70
2018-11-11T10:10:58.184Z,1.60
2018-11-11T10:12:01.002Z,1.70
2018-11-11T10:12:58.193Z,2.00
2018-11-11T10:13:58.196Z,1.90
2018-11-11T10:14:58.205Z,1.70
2018-11-11T10:15:58.207Z,1.90
2018-11-11T10:16:58.195Z,1.90
2018-11-11T10:17:58.205Z,2.10
2018-11-11T10:18:58.192Z,2.00
2018-11-11T10:19:58.196Z,1.80
2018-11-11T10:20:58.224Z,1.60
2018-11-11T10:21:58.202Z,1.60
2018-11-11T10:22:58.267Z,1.90
2018-11-11T10:23:58.220Z,1.70
2018-11-11T10:24:58.209Z,1.80
2018-11-11T10:25:58.210Z,1.60
2018-11-11T10:26:58.226Z,1.90
2018-11-11T10:27:58.233Z,1.70
2018-11-11T10:28:58.211Z,1.60
2018-11-11T10:29:58.246Z,1.80
2018-11-11T10:30:58.242Z,1.80
2018-11-11T10:31:58.230Z,1.90
2018-11-11T10:32:58.209Z,1.60
2018-11-11T10:33:58.244Z,2.10
2018-11-11T10:34:58.274Z,1.80
2018-11-11T10:35:58.256Z,1.60
2018-11-11T10:36:58.241Z,1.50
2018-11-11T10:37:58.235Z,1.80
2018-11-11T10:38:58.280Z,2.10
2018-11-11T10:39:58.225Z,1.70
2018-11-11T10:40:58.233Z,1.80
2018-11-11T10:41:58.232Z,1.70
2018-11-11T10:42:58.271Z,1.80
2018-11-11T10:43:58.254Z,1.70
2018-11-11T10:44:58.260Z,1.60
2018-11-11T10:45:58.242Z,1.80
2018-11-11T10:46:58.258Z,1.90
2018-11-11T10:47:58.254Z,1.60
2018-11-11T10:48:58.257Z,1.60
2018-11-11T10:49:58.268Z,1.60
2018-11-11T10:50:58.250Z,1.70
2018-11-11T10:51:58.273Z,1.60
2018-11-11T10:52:58.253Z,1.90
2018-11-11T10:53:58.259Z,1.70
2018-11-11T10:54:58.256Z,1.60
2018-11-11T10:55:58.258Z,1.70
2018-11-11T10:56:58.260Z,1.70
2018-11-11T10:57:58.269Z,1.90
2018-11-11T10:58:58.267Z,1.90
2018-11-11T10:59:58.304Z,1.70
2018-11-11T11:00:58.278Z,1.80
2018-11-11T11:01:58.272Z,1.60
2018-11-11T11:02:58.288Z,1.40
2018-11-11T11:03:58.294Z,1.50
2018-11-11T11:04:58.285Z,1.60
2018-11-11T11:05:58.294Z,1.60
2018-11-11T11:06:58.291Z,1.50
2018-11-11T11:07:58.280Z,1.80
2018-11-11T11:08:58.290Z,1.80
2018-11-11T11:09:58.299Z,1.90
2018-11-11T11:10:58.291Z,1.90
2018-11-11T11:11:58.277Z,1.80
2018-11-11T11:12:58.293Z,1.50
2018-11-11T11:13:58.338Z,2.00
2018-11-11T11:14:58.290Z,1.80
2018-11-11T11:15:58.293Z,1.80
2018-11-11T11:16:58.296Z,1.60
2018-11-11T11:17:58.299Z,1.70
2018-11-11T11:18:58.312Z,1.70
2018-11-11T11:19:58.318Z,1.80
2018-11-11T11:20:58.307Z,2.00
2018-11-11T11:21:58.313Z,1.70
2018-11-11T11:22:58.377Z,1.70
2018-11-11T11:23:58.330Z,1.70
2018-11-11T11:24:58.328Z,1.80
2018-11-11T11:25:58.316Z,2.00
2018-11-11T11:26:58.325Z,1.50
2018-11-11T11:27:58.328Z,1.80
2018-11-11T11:28:58.308Z,1.70
2018-11-11T11:29:58.334Z,1.70
2018-11-11T11:30:58.323Z,1.70
2018-11-11T11:31:58.361Z,1.90
2018-11-11T11:32:58.339Z,1.50
2018-11-11T11:33:58.315Z,1.60
2018-11-11T11:34:58.331Z,1.50
2018-11-11T11:35:58.334Z,2.10
2018-11-11T11:36:58.342Z,2.00
2018-11-11T11:37:58.346Z,1.80
2018-11-11T11:38:58.324Z,1.80
2018-11-11T11:39:58.328Z,1.80
2018-11-11T11:40:58.331Z,1.70
2018-11-11T11:41:58.332Z,2.00
2018-11-11T11:42:58.331Z,2.20
2018-11-11T11:43:58.351Z,1.90
2018-11-11T11:44:58.358Z,1.90
2018-11-11T11:45:58.334Z,1.60
2018-11-11T11:46:58.325Z,1.90
2018-11-11T11:47:58.348Z,1.70
2018-11-11T11:48:58.346Z,1.90
2018-11-11T11:49:58.400Z,2.30
2018-11-11T11:50:58.338Z,2.10
2018-11-11T11:51:58.425Z,1.70
2018-11-11T11:52:58.400Z,1.80
2018-11-11T11:53:58.333Z,1.80
2018-11-11T11:54:58.339Z,1.70
2018-11-11T11:55:58.342Z,1.90
2018-11-11T11:56:58.343Z,2.00
2018-11-11T11:57:58.371Z,2.40
2018-11-11T11:58:58.350Z,1.90
2018-11-11T11:59:58.353Z,2.00
2018-11-11T12:00:58.378Z,1.80
2018-11-11T12:01:58.406Z,1.70
2018-11-11T12:02:58.357Z,1.90
2018-11-11T12:03:58.353Z,2.00
2018-11-11T12:04:58.361Z,1.80
2018-11-11T12:05:58.361Z,1.80
2018-11-11T12:06:58.367Z,1.90
2018-11-11T12:07:58.366Z,1.80
2018-11-11T12:08:58.440Z,1.90
2018-11-11T12:09:58.380Z,1.90
2018-11-11T12:10:58.363Z,2.10
2018-11-11T12:11:58.365Z,2.20
2018-11-11T12:12:58.361Z,1.80
2018-11-11T12:13:58.361Z,1.80
2018-11-11T12:14:58.365Z,1.80
2018-11-11T12:15:58.380Z,1.80
2018-11-11T12:16:58.394Z,1.60
2018-11-11T12:17:58.379Z,2.30
2018-11-11T12:18:58.399Z,1.90
2018-11-11T12:19:58.375Z,2.00
2018-11-11T12:20:58.367Z,1.90
2018-11-11T12:21:58.399Z,1.60
2018-11-11T12:22:58.401Z,1.90
2018-11-11T12:23:58.383Z,1.80
2018-11-11T12:24:58.393Z,1.90
2018-11-11T12:25:58.401Z,2.30
2018-11-11T12:26:58.416Z,2.00
2018-11-11T12:27:58.412Z,1.90
2018-11-11T12:28:58.379Z,2.10
2018-11-11T12:29:58.429Z,1.80
2018-11-11T12:30:58.498Z,2.00
2018-11-11T12:31:58.388Z,1.90
2018-11-11T12:32:58.394Z,2.00
2018-11-11T12:33:58.392Z,2.10
2018-11-11T12:34:58.459Z,1.90
2018-11-11T12:35:58.407Z,2.20
2018-11-11T12:36:58.406Z,1.80
2018-11-11T12:37:58.399Z,1.80
2018-11-11T12:38:58.447Z,1.90
2018-11-11T12:39:58.526Z,2.00
2018-11-11T12:40:58.403Z,1.70
2018-11-11T12:41:58.407Z,1.80
2018-11-11T12:42:58.404Z,2.50
2018-11-11T12:43:58.414Z,2.10
2018-11-11T12:44:58.416Z,2.00
2018-11-11T12:45:58.411Z,2.10
2018-11-11T12:46:58.482Z,1.90
2018-11-11T12:47:58.416Z,2.10
2018-11-11T12:48:58.431Z,2.20
2018-11-11T12:49:58.410Z,2.20
2018-11-11T12:50:58.409Z,2.20
2018-11-11T12:51:58.430Z,2.20
2018-11-11T12:52:58.407Z,2.00
2018-11-11T12:53:58.419Z,1.70
2018-11-11T12:54:58.427Z,2.00
2018-11-11T12:55:58.428Z,2.10
2018-11-11T12:56:58.422Z,2.20
2018-11-11T12:57:58.450Z,2.20
2018-11-11T12:58:58.431Z,1.90
2018-11-11T12:59:58.423Z,2.10
2018-11-11T13:00:58.508Z,2.30
2018-11-11T13:01:58.451Z,2.30
2018-11-11T13:02:58.435Z,2.10
2018-11-11T13:03:58.436Z,2.00
2018-11-11T13:04:58.445Z,2.20
2018-11-11T13:05:58.438Z,2.20
2018-11-11T13:06:58.451Z,1.90
2018-11-11T13:07:58.468Z,2.20
2018-11-11T13:08:58.450Z,2.10
2018-11-11T13:09:58.454Z,1.90
2018-11-11T13:10:58.432Z,2.60
2018-11-11T13:11:58.524Z,2.00
2018-11-11T13:12:58.475Z,2.00
2018-11-11T13:13:58.536Z,1.70
2018-11-11T13:14:58.460Z,2.20
2018-11-11T13:15:58.457Z,1.80
2018-11-11T13:16:58.468Z,2.40
2018-11-11T13:17:58.452Z,2.40
2018-11-11T13:18:58.442Z,2.40